Decoded METAR's for Zimbabwe

 
 
Print Page

Back to Weather Page

 
 

Bulawayo - Zimbabwe, FVBU

ADDS - TAFS form results

Aviation Digital Data Service (ADDS)

Output produced by TAFs form (1208 UTC 21 September 2017)
found at http://aviationweather.gov/adds/tafs/
 
METAR text: FVBU 211000Z 10010KT 050V200 CAVOK 27/10 Q1026 NOSIG
Conditions at: FVBU (BULAWAYO/WOODVAL, ZW) observed 1000 UTC 21 September 2017
Temperature: 27.0°C (81°F)
Dewpoint: 10.0°C (50°F) [RH = 34%]
Pressure (altimeter): 30.30 inches Hg (1026.0 mb)
Winds: from the E (100 degrees) at 12 MPH (10 knots; 5.2 m/s)
Visibility: 6 or more miles (10+ km)
Ceiling: ceiling and visibility are OK
Clouds: unknown
Weather: no significant weather observed at this time

Array
Chiredzi / Buffalo - Zimbabwe, FVCZ

ADDS - TAFS form results

Aviation Digital Data Service (ADDS)

Output produced by TAFs form (1208 UTC 21 September 2017)
found at http://aviationweather.gov/adds/tafs/
 
You entered "FVCZ"

Sorry, either there are no data available for your request or you did not enter any valid ICAO airport abbreviations.

See stations.txt for a list of known METAR and TAF locations. Then go back to the ADDS METARs or TAFs page and try again
 
Please try again and, if problems persist, then send mail to ncep.awc.adds@noaa.gov
Array
Victoria Falls - Zimbabwe, FVFA

ADDS - TAFS form results

Aviation Digital Data Service (ADDS)

Output produced by TAFs form (1208 UTC 21 September 2017)
found at http://aviationweather.gov/adds/tafs/
 
METAR text: FVFA 211000Z 07012KT 030V110 CAVOK 31/11 Q1021 NOSIG
Conditions at: FVFA (VICTORIA FALLS , ZW) observed 1000 UTC 21 September 2017
Temperature: 31.0°C (88°F)
Dewpoint: 11.0°C (52°F) [RH = 29%]
Pressure (altimeter): 30.15 inches Hg (1021.0 mb)
Winds: from the ENE (70 degrees) at 14 MPH (12 knots; 6.2 m/s)
Visibility: 6 or more miles (10+ km)
Ceiling: ceiling and visibility are OK
Clouds: unknown
Weather: no significant weather observed at this time

Array
Harare - Zimbabwe, FVHA

ADDS - TAFS form results

Aviation Digital Data Service (ADDS)

Output produced by TAFs form (1208 UTC 21 September 2017)
found at http://aviationweather.gov/adds/tafs/
 
METAR text: FVHA 211000Z 04011KT 010V090 8000 FEW050 26/11 Q1027 NOSIG
Conditions at: FVHA (HARARE/KUTSAGA(M, ZW) observed 1000 UTC 21 September 2017
Temperature: 26.0°C (79°F)
Dewpoint: 11.0°C (52°F) [RH = 39%]
Pressure (altimeter): 30.32 inches Hg (1027.0 mb)
Winds: from the NE (40 degrees) at 13 MPH (11 knots; 5.7 m/s)
Visibility: 5 miles (8 km)
Ceiling: at least 12,000 feet AGL
Clouds: few clouds at 5000 feet AGL
Weather: no significant weather observed at this time

Array
Kariba - Zimbabwe, FVKB

ADDS - TAFS form results

Aviation Digital Data Service (ADDS)

Output produced by TAFs form (1208 UTC 21 September 2017)
found at http://aviationweather.gov/adds/tafs/
 
METAR text: FVKB 210700Z 12002KT CAVOK 28/17 Q1021 NOSIG
Conditions at: FVKB (KARIBA , ZW) observed 0700 UTC 21 September 2017
Temperature: 28.0°C (82°F)
Dewpoint: 17.0°C (63°F) [RH = 51%]
Pressure (altimeter): 30.15 inches Hg (1021.0 mb)
Winds: from the ESE (120 degrees) at 2 MPH (2 knots; 1.0 m/s)
Visibility: 6 or more miles (10+ km)
Ceiling: ceiling and visibility are OK
Clouds: unknown
Weather: no significant weather observed at this time

Array
Masvingo - Zimbabwe, FVMV

ADDS - TAFS form results

Aviation Digital Data Service (ADDS)

Output produced by TAFs form (1208 UTC 21 September 2017)
found at http://aviationweather.gov/adds/tafs/
 
METAR text: FVMV 211000Z 15015G20KT CAVOK 25/08 Q1026 NOSIG
Conditions at: FVMV (MASVINGO , ZW) observed 1000 UTC 21 September 2017
Temperature: 25.0°C (77°F)
Dewpoint: 8.0°C (46°F) [RH = 34%]
Pressure (altimeter): 30.30 inches Hg (1026.0 mb)
Winds: from the SSE (150 degrees) at 17 MPH (15 knots; 7.8 m/s)
gusting to 23 MPH (20 knots; 10.4 m/s)
Visibility: 6 or more miles (10+ km)
Ceiling: ceiling and visibility are OK
Clouds: unknown
Weather: no significant weather observed at this time

Array
Gweru / Thornhill - Zimbabwe, FVTL

ADDS - TAFS form results

Aviation Digital Data Service (ADDS)

Output produced by TAFs form (1208 UTC 21 September 2017)
found at http://aviationweather.gov/adds/tafs/
 
You entered "FVTL"

Sorry, either there are no data available for your request or you did not enter any valid ICAO airport abbreviations.

See stations.txt for a list of known METAR and TAF locations. Then go back to the ADDS METARs or TAFs page and try again
 
Please try again and, if problems persist, then send mail to ncep.awc.adds@noaa.gov
Array
Hwange National Park - Zimbabwe, FVWN

ADDS - TAFS form results

Aviation Digital Data Service (ADDS)

Output produced by TAFs form (1208 UTC 21 September 2017)
found at http://aviationweather.gov/adds/tafs/
 
You entered "FVWN"

Sorry, either there are no data available for your request or you did not enter any valid ICAO airport abbreviations.

See stations.txt for a list of known METAR and TAF locations. Then go back to the ADDS METARs or TAFs page and try again
 
Please try again and, if problems persist, then send mail to ncep.awc.adds@noaa.gov
Array